Time;durP1;ratioP1;P1;durP2;ratioP2;P2;SDS_P1;SDS_P2;PMS_P1;PMS_P2;Temp;Humidity;BMP_temperature;BMP_pressure;BME280_temperature;BME280_humidity;BME280_pressure;Samples;Min_cycle;Max_cycle;Signal;HPM_P1;HPM_P2
2022/11/28 00:01:58;;;;;;;8.50;6.07;;;8.20;99.90;;;;;;5028363;28;20874;-80
2022/11/28 00:04:24;;;;;;;8.20;6.23;;;8.20;99.90;;;;;;5028565;28;20296;-80
2022/11/28 00:06:49;;;;;;;7.57;6.43;;;8.20;99.90;;;;;;5029204;28;20193;-79
2022/11/28 00:09:18;;;;;;;6.80;6.10;;;8.20;99.90;;;;;;5028894;28;20689;-80
2022/11/28 00:11:45;;;;;;;7.03;5.68;;;8.20;99.90;;;;;;5028763;28;20608;-80
2022/11/28 00:14:12;;;;;;;6.85;5.65;;;8.20;99.90;;;;;;5027432;28;20633;-79
2022/11/28 00:16:38;;;;;;;9.05;5.20;;;8.20;99.90;;;;;;5028950;28;20170;-79
2022/11/28 00:19:04;;;;;;;10.77;7.30;;;8.20;99.90;;;;;;5028775;28;20170;-79
2022/11/28 00:21:30;;;;;;;9.88;5.25;;;8.20;99.90;;;;;;5030036;28;20568;-79
2022/11/28 00:23:57;;;;;;;9.02;6.70;;;8.20;99.90;;;;;;5031784;28;20197;-79
2022/11/28 00:26:32;;;;;;;7.53;5.95;;;8.20;99.90;;;;;;5031820;28;20641;-79
2022/11/28 00:29:01;;;;;;;7.53;6.72;;;8.20;99.90;;;;;;5032991;28;20165;-78
2022/11/28 00:31:34;;;;;;;7.07;5.70;;;8.20;99.90;;;;;;5031257;28;20936;-78
2022/11/28 00:34:00;;;;;;;7.88;6.50;;;8.10;99.90;;;;;;5031161;28;20185;-78
2022/11/28 00:36:27;;;;;;;7.28;5.70;;;8.10;99.90;;;;;;5032589;28;20206;-78
2022/11/28 00:38:53;;;;;;;7.68;6.50;;;8.10;99.90;;;;;;5032739;28;20165;-78
2022/11/28 00:41:22;;;;;;;9.47;6.70;;;8.10;99.90;;;;;;5032256;28;20271;-78
2022/11/28 00:43:49;;;;;;;7.00;6.30;;;8.10;99.90;;;;;;5032360;28;21182;-78
2022/11/28 00:46:16;;;;;;;6.55;5.80;;;8.10;99.90;;;;;;5032481;28;20174;-80
2022/11/28 00:48:42;;;;;;;6.78;5.90;;;8.10;99.90;;;;;;5032526;28;20260;-80
2022/11/28 00:51:12;;;;;;;9.80;6.30;;;8.10;99.90;;;;;;5031984;28;20355;-80
2022/11/28 00:53:40;;;;;;;8.60;7.15;;;8.10;99.90;;;;;;5030889;28;20612;-80
2022/11/28 00:56:08;;;;;;;7.43;6.18;;;8.10;99.90;;;;;;5032388;28;20169;-79
2022/11/28 00:58:34;;;;;;;6.78;5.55;;;8.10;99.90;;;;;;5035253;28;20162;-80
2022/11/28 01:01:10;;;;;;;9.02;6.00;;;8.10;99.90;;;;;;5041674;28;20586;-80
2022/11/28 01:03:37;;;;;;;7.45;6.65;;;8.10;99.90;;;;;;5024308;28;20292;-80
2022/11/28 01:06:04;;;;;;;8.10;6.22;;;8.10;99.90;;;;;;5047713;28;20169;-80
2022/11/28 01:08:30;;;;;;;9.88;6.53;;;8.10;99.90;;;;;;5041401;28;20192;-80
2022/11/28 01:10:56;;;;;;;8.48;5.85;;;8.10;99.90;;;;;;5044831;28;20205;-80
2022/11/28 01:13:22;;;;;;;8.10;5.53;;;8.10;99.90;;;;;;5051405;28;20587;-80
2022/11/28 01:15:48;;;;;;;6.73;5.30;;;8.10;99.90;;;;;;5052268;28;21380;-80
2022/11/28 01:18:17;;;;;;;6.43;5.20;;;8.10;99.90;;;;;;5050454;28;20169;-80
2022/11/28 01:20:43;;;;;;;5.72;4.88;;;8.20;99.90;;;;;;5052318;28;20176;-75
2022/11/28 01:23:08;;;;;;;6.55;5.95;;;8.20;99.90;;;;;;5049523;28;20177;-75
2022/11/28 01:25:34;;;;;;;8.50;5.83;;;8.10;99.90;;;;;;5033851;28;20196;-75
2022/11/28 01:28:00;;;;;;;6.25;5.60;;;8.20;99.90;;;;;;5051480;28;20165;-75
2022/11/28 01:30:27;;;;;;;7.43;6.00;;;8.20;99.90;;;;;;5051712;28;20568;-75
2022/11/28 01:32:52;;;;;;;8.80;5.90;;;8.20;99.90;;;;;;5050732;28;20559;-75
2022/11/28 01:35:18;;;;;;;5.60;5.10;;;8.20;99.90;;;;;;5033732;28;20204;-75
2022/11/28 01:37:44;;;;;;;6.90;5.77;;;8.20;99.90;;;;;;5051013;28;20590;-75
2022/11/28 01:40:11;;;;;;;8.53;5.93;;;8.20;99.90;;;;;;5050329;28;20981;-75
2022/11/28 01:42:37;;;;;;;7.38;6.38;;;8.20;99.90;;;;;;5049829;28;20744;-75
2022/11/28 01:45:13;;;;;;;9.03;6.83;;;8.20;99.90;;;;;;5049864;28;20201;-75
2022/11/28 01:47:39;;;;;;;6.25;4.82;;;8.20;99.90;;;;;;5051942;28;20567;-76
2022/11/28 01:50:07;;;;;;;9.75;7.40;;;8.20;99.90;;;;;;5050645;28;20200;-75
2022/11/28 01:52:34;;;;;;;8.68;6.38;;;8.10;99.90;;;;;;5033458;28;20171;-76
2022/11/28 01:55:02;;;;;;;8.63;5.43;;;8.10;99.90;;;;;;5050993;28;20200;-76
2022/11/28 01:57:28;;;;;;;6.95;6.25;;;8.10;99.90;;;;;;5051696;28;20216;-76
2022/11/28 02:00:00;;;;;;;7.63;6.05;;;8.10;99.90;;;;;;5051383;28;20250;-76
2022/11/28 02:02:38;;;;;;;7.22;6.47;;;8.10;99.90;;;;;;5051820;28;20169;-75
2022/11/28 02:05:04;;;;;;;7.65;6.35;;;8.10;99.90;;;;;;5016311;28;20698;-74
2022/11/28 02:07:30;;;;;;;6.60;5.85;;;8.10;99.90;;;;;;5049954;28;20562;-74
2022/11/28 02:09:56;;;;;;;6.20;5.60;;;8.10;99.90;;;;;;5050774;28;20207;-74
2022/11/28 02:12:41;;;;;;;5.90;5.30;;;8.10;99.90;;;;;;5050158;28;20169;-75
2022/11/28 02:15:37;;;;;;;5.47;4.88;;;8.20;99.90;;;;;;5049947;28;20603;-75
2022/11/28 02:18:21;;;;;;;5.90;4.75;;;8.20;99.90;;;;;;5049939;28;20257;-75
2022/11/28 02:21:25;;;;;;;7.38;5.38;;;8.20;99.90;;;;;;5049556;28;20165;-75
2022/11/28 02:24:06;;;;;;;8.40;5.47;;;8.20;99.90;;;;;;5051128;28;20207;-75
2022/11/28 02:26:53;;;;;;;10.38;5.50;;;8.20;99.90;;;;;;5050847;28;20173;-75
2022/11/28 02:29:41;;;;;;;6.00;5.40;;;8.20;99.90;;;;;;5053654;28;20173;-76
2022/11/28 02:32:12;;;;;;;10.65;5.53;;;8.30;99.90;;;;;;5051450;28;20684;-76
2022/11/28 02:34:59;;;;;;;6.28;4.95;;;8.30;99.90;;;;;;5052782;28;20200;-75
2022/11/28 02:37:37;;;;;;;6.65;5.15;;;8.30;99.90;;;;;;5055312;28;20255;-76
2022/11/28 02:40:09;;;;;;;6.30;4.55;;;8.30;99.90;;;;;;5056023;28;20165;-76
2022/11/28 02:42:53;;;;;;;8.85;5.82;;;8.40;99.90;;;;;;5058216;28;20216;-76
2022/11/28 02:46:11;;;;;;;5.78;5.18;;;8.30;99.90;;;;;;5056410;28;20192;-76
2022/11/28 02:48:44;;;;;;;7.28;5.78;;;8.30;99.90;;;;;;5028067;28;20177;-76
2022/11/28 02:51:30;;;;;;;5.82;5.18;;;8.30;99.90;;;;;;5050680;28;20227;-76
2022/11/28 02:53:57;;;;;;;5.22;4.72;;;8.40;99.90;;;;;;5051927;28;20193;-76
2022/11/28 02:56:24;;;;;;;8.10;6.47;;;8.40;99.90;;;;;;5055896;28;20238;-75
2022/11/28 02:58:50;;;;;;;5.43;4.57;;;8.40;99.90;;;;;;5052863;28;20176;-75
2022/11/28 03:01:23;;;;;;;6.95;5.97;;;8.40;99.90;;;;;;5054416;28;20267;-75
2022/11/28 03:04:05;;;;;;;7.43;6.38;;;8.30;99.90;;;;;;5040749;28;20685;-75
2022/11/28 03:07:04;;;;;;;6.80;6.10;;;8.40;99.90;;;;;;5028884;28;20169;-75
2022/11/28 03:09:45;;;;;;;5.50;4.95;;;8.30;99.90;;;;;;5029912;28;20182;-75
2022/11/28 03:12:18;;;;;;;7.05;5.20;;;8.40;99.90;;;;;;5028963;28;20173;-75
2022/11/28 03:15:02;;;;;;;7.43;5.18;;;8.40;99.90;;;;;;5028570;28;20196;-74
2022/11/28 03:17:51;;;;;;;5.95;5.25;;;8.30;99.90;;;;;;5029685;28;20165;-74
2022/11/28 03:20:29;;;;;;;7.75;5.18;;;8.30;99.90;;;;;;5028660;28;20169;-74
2022/11/28 03:23:11;;;;;;;8.85;5.72;;;8.30;99.90;;;;;;5029029;28;20166;-74
2022/11/28 03:25:56;;;;;;;6.68;5.65;;;8.30;99.90;;;;;;5028429;28;20174;-75
2022/11/28 03:28:34;;;;;;;6.75;5.00;;;8.30;99.90;;;;;;5028302;28;20189;-75
2022/11/28 03:31:22;;;;;;;5.65;5.07;;;8.30;99.90;;;;;;5028246;28;20197;-75
2022/11/28 03:33:53;;;;;;;7.75;5.38;;;8.30;99.90;;;;;;5018005;28;20202;-75
2022/11/28 03:36:26;;;;;;;6.22;4.97;;;8.30;99.90;;;;;;5028365;28;20170;-75
2022/11/28 03:39:05;;;;;;;9.90;6.53;;;8.30;99.90;;;;;;5029418;28;20162;-75
2022/11/28 03:42:02;;;;;;;8.35;5.95;;;8.30;99.90;;;;;;5029145;28;20269;-74
2022/11/28 03:44:34;;;;;;;6.93;6.03;;;8.30;99.90;;;;;;5026135;28;20540;-75
2022/11/28 03:47:01;;;;;;;7.07;5.90;;;8.20;99.90;;;;;;5028208;28;20176;-75
2022/11/28 03:49:36;;;;;;;7.68;5.72;;;8.10;99.90;;;;;;5029224;28;20165;-75
2022/11/28 03:52:11;;;;;;;8.45;6.30;;;8.20;99.90;;;;;;5028654;28;20254;-75
2022/11/28 03:54:51;;;;;;;8.27;6.40;;;8.10;99.90;;;;;;5029155;28;20247;-75
2022/11/28 03:57:33;;;;;;;8.55;5.65;;;8.10;99.90;;;;;;5028001;28;20162;-75
2022/11/28 04:00:05;;;;;;;6.03;5.25;;;8.20;99.90;;;;;;5028429;28;20262;-74
2022/11/28 04:02:59;;;;;;;8.93;5.75;;;8.20;99.90;;;;;;5028300;28;20241;-74
2022/11/28 04:06:01;;;;;;;6.95;6.25;;;8.10;99.90;;;;;;5027711;28;20197;-74
2022/11/28 04:08:33;;;;;;;5.55;4.78;;;8.20;99.90;;;;;;5027821;28;20875;-75
2022/11/28 04:11:14;;;;;;;6.38;5.35;;;8.20;99.90;;;;;;5028299;28;20226;-74
2022/11/28 04:13:40;;;;;;;8.40;6.25;;;8.20;99.90;;;;;;5027285;28;20217;-75
2022/11/28 04:16:29;;;;;;;6.43;5.83;;;8.20;99.90;;;;;;5027406;28;20197;-75
2022/11/28 04:19:17;;;;;;;7.53;6.15;;;8.20;99.90;;;;;;5029083;28;20188;-75
2022/11/28 04:21:49;;;;;;;6.43;5.82;;;8.10;99.90;;;;;;5028276;28;20223;-75
2022/11/28 04:24:19;;;;;;;9.73;7.18;;;8.20;99.90;;;;;;5028243;28;20193;-75
2022/11/28 04:26:54;;;;;;;6.28;5.28;;;8.10;99.90;;;;;;5028785;28;20297;-75
2022/11/28 04:29:22;;;;;;;10.75;6.78;;;8.10;99.90;;;;;;5028803;28;20177;-75
2022/11/28 04:31:52;;;;;;;12.02;7.60;;;8.10;99.90;;;;;;5028223;28;20543;-75
2022/11/28 04:34:20;;;;;;;8.27;7.20;;;8.10;99.90;;;;;;5026878;28;20203;-75
2022/11/28 04:36:48;;;;;;;9.50;7.03;;;8.10;99.90;;;;;;5028609;28;20165;-74
2022/11/28 04:39:18;;;;;;;7.22;6.45;;;8.10;99.90;;;;;;5027280;28;20224;-75
2022/11/28 04:42:01;;;;;;;9.27;7.40;;;8.10;99.90;;;;;;5027019;28;20182;-74
2022/11/28 04:44:34;;;;;;;7.55;6.75;;;8.10;99.90;;;;;;5028724;28;20201;-74
2022/11/28 04:46:59;;;;;;;7.18;6.30;;;8.10;99.90;;;;;;5028415;28;20173;-74
2022/11/28 04:49:28;;;;;;;11.82;8.65;;;8.10;99.90;;;;;;5028639;28;20266;-74
2022/11/28 04:52:08;;;;;;;7.80;6.32;;;8.10;99.90;;;;;;5027092;28;20206;-74
2022/11/28 04:55:00;;;;;;;7.50;6.78;;;8.00;99.90;;;;;;5028464;28;20212;-74
2022/11/28 04:57:34;;;;;;;9.98;7.65;;;8.00;99.90;;;;;;4996968;28;20273;-75
2022/11/28 05:00:06;;;;;;;9.20;6.90;;;8.00;99.90;;;;;;5028577;28;20177;-74
2022/11/28 05:02:34;;;;;;;8.00;6.40;;;8.00;99.90;;;;;;5026809;28;20166;-75
2022/11/28 05:05:00;;;;;;;9.90;6.72;;;8.00;99.90;;;;;;5026969;28;20288;-75
2022/11/28 05:07:25;;;;;;;8.77;7.17;;;8.00;99.90;;;;;;5028589;28;20254;-75
2022/11/28 05:09:51;;;;;;;8.00;6.07;;;8.10;99.90;;;;;;5028654;28;20556;-75
2022/11/28 05:12:17;;;;;;;8.87;7.13;;;8.10;99.90;;;;;;5031365;28;20168;-75
2022/11/28 05:14:43;;;;;;;7.10;5.53;;;8.10;99.90;;;;;;5031834;28;20193;-74
2022/11/28 05:17:11;;;;;;;10.70;6.77;;;8.10;99.90;;;;;;5032205;28;20651;-74
2022/11/28 05:19:37;;;;;;;8.00;7.20;;;8.20;99.90;;;;;;5031946;28;20170;-74
2022/11/28 05:22:03;;;;;;;6.90;6.17;;;8.10;99.90;;;;;;5030856;28;20249;-75
2022/11/28 05:24:29;;;;;;;6.37;5.77;;;8.20;99.90;;;;;;5030465;28;20670;-75
2022/11/28 05:26:54;;;;;;;10.13;7.10;;;8.20;99.90;;;;;;5031900;28;20166;-75
2022/11/28 05:29:20;;;;;;;7.30;6.00;;;8.20;99.90;;;;;;5030295;28;20181;-75
2022/11/28 05:31:46;;;;;;;7.63;6.77;;;8.20;99.90;;;;;;5031361;28;20196;-75
2022/11/28 05:34:11;;;;;;;6.70;6.10;;;8.20;99.90;;;;;;5031166;28;20193;-76
2022/11/28 05:36:37;;;;;;;8.30;6.43;;;8.20;99.90;;;;;;5033087;28;20201;-75
2022/11/28 05:39:03;;;;;;;8.57;7.70;;;8.20;99.90;;;;;;5034254;28;20165;-75
2022/11/28 05:41:30;;;;;;;9.03;6.83;;;8.20;99.90;;;;;;5030806;28;20293;-75
2022/11/28 05:43:58;;;;;;;8.82;7.25;;;8.20;99.90;;;;;;5032569;28;20208;-76
2022/11/28 05:46:24;;;;;;;7.65;6.47;;;8.30;99.90;;;;;;5031301;28;20247;-75
2022/11/28 05:48:51;;;;;;;5.85;4.90;;;8.30;99.90;;;;;;5032300;28;20161;-75
2022/11/28 05:51:17;;;;;;;9.65;7.20;;;8.30;99.90;;;;;;5030115;28;20772;-75
2022/11/28 05:53:42;;;;;;;10.50;7.50;;;8.20;99.90;;;;;;5033026;28;20277;-76
2022/11/28 05:56:15;;;;;;;8.73;6.63;;;8.20;99.90;;;;;;5035003;28;21119;-76
2022/11/28 05:58:41;;;;;;;8.02;7.22;;;8.20;99.90;;;;;;5040140;28;20177;-77
2022/11/28 06:01:16;;;;;;;11.00;7.55;;;8.20;99.90;;;;;;5032184;28;20189;-75
2022/11/28 06:03:42;;;;;;;9.00;8.10;;;8.20;99.90;;;;;;5014206;28;20212;-75
2022/11/28 06:06:14;;;;;;;8.77;7.75;;;8.20;99.90;;;;;;5031223;28;20174;-75
2022/11/28 06:08:41;;;;;;;9.20;6.88;;;8.20;99.90;;;;;;5035803;28;20276;-75
2022/11/28 06:11:07;;;;;;;9.25;8.02;;;8.10;99.90;;;;;;5036446;28;20220;-76
2022/11/28 06:13:33;;;;;;;10.30;9.15;;;8.20;99.90;;;;;;5051248;28;20238;-76
2022/11/28 06:15:59;;;;;;;9.90;6.57;;;8.20;99.90;;;;;;5034369;28;20193;-75
2022/11/28 06:18:24;;;;;;;7.70;6.90;;;8.20;99.90;;;;;;5042912;28;20689;-76
2022/11/28 06:20:50;;;;;;;10.50;7.90;;;8.20;99.90;;;;;;5031636;28;20193;-77
2022/11/28 06:23:16;;;;;;;10.43;7.17;;;8.20;99.90;;;;;;5032133;28;20205;-76
2022/11/28 06:25:42;;;;;;;8.37;7.00;;;8.10;99.90;;;;;;5033737;28;20551;-77
2022/11/28 06:28:08;;;;;;;8.57;7.68;;;8.10;99.90;;;;;;5015969;28;20588;-77
2022/11/28 06:30:33;;;;;;;9.70;8.47;;;8.10;99.90;;;;;;5016807;28;20205;-77
2022/11/28 06:32:59;;;;;;;10.43;7.53;;;8.10;99.90;;;;;;5012290;28;20167;-76
2022/11/28 06:35:25;;;;;;;8.43;7.50;;;8.10;99.90;;;;;;5013553;28;20557;-76
2022/11/28 06:37:51;;;;;;;9.03;8.03;;;8.00;99.90;;;;;;5013018;28;20163;-76
2022/11/28 06:40:16;;;;;;;8.90;7.03;;;8.00;99.90;;;;;;5013482;28;20190;-77
2022/11/28 06:42:42;;;;;;;8.23;6.87;;;8.00;99.90;;;;;;5011567;28;20580;-77
2022/11/28 06:45:08;;;;;;;8.50;7.70;;;8.00;99.90;;;;;;5011947;28;20190;-77
2022/11/28 06:47:34;;;;;;;9.95;8.30;;;8.00;99.90;;;;;;5012038;28;20642;-77
2022/11/28 06:50:00;;;;;;;10.13;9.17;;;7.90;99.90;;;;;;5011422;28;20174;-77
2022/11/28 06:52:27;;;;;;;8.65;7.45;;;8.00;99.90;;;;;;5012098;28;20202;-79
2022/11/28 06:54:53;;;;;;;8.82;7.93;;;8.00;99.90;;;;;;5005947;28;20249;-77
2022/11/28 06:57:19;;;;;;;8.23;6.68;;;8.10;99.90;;;;;;5020391;28;20174;-76
2022/11/28 06:59:46;;;;;;;11.38;7.47;;;8.10;99.90;;;;;;5020609;28;20162;-77
2022/11/28 07:02:12;;;;;;;7.35;6.45;;;8.10;99.90;;;;;;5034214;28;20165;-77
2022/11/28 07:04:38;;;;;;;10.43;7.57;;;8.10;99.90;;;;;;5039818;28;20215;-77
2022/11/28 07:07:04;;;;;;;8.73;7.70;;;8.10;99.90;;;;;;5035484;28;20257;-76
2022/11/28 07:09:30;;;;;;;7.90;7.10;;;8.10;99.90;;;;;;5035186;28;20561;-77
2022/11/28 07:11:55;;;;;;;8.67;7.80;;;8.20;99.90;;;;;;5035844;28;20205;-76
2022/11/28 07:14:21;;;;;;;13.10;8.03;;;8.20;99.90;;;;;;5031548;28;20608;-76
2022/11/28 07:16:48;;;;;;;8.83;7.90;;;8.20;99.90;;;;;;5030155;28;20269;-77
2022/11/28 07:19:14;;;;;;;8.77;6.55;;;8.20;99.90;;;;;;5031774;28;21012;-75
2022/11/28 07:21:40;;;;;;;8.20;7.38;;;8.20;99.90;;;;;;5029690;28;20276;-76
2022/11/28 07:24:06;;;;;;;7.40;6.60;;;8.20;99.90;;;;;;5028756;28;20217;-76
2022/11/28 07:26:32;;;;;;;9.00;7.75;;;8.30;99.90;;;;;;5030705;28;20564;-76
2022/11/28 07:28:58;;;;;;;13.43;7.55;;;8.30;99.90;;;;;;5030029;28;20539;-75
2022/11/28 07:31:30;;;;;;;10.30;7.90;;;8.30;99.90;;;;;;5011849;28;20215;-76
2022/11/28 07:33:56;;;;;;;8.88;7.70;;;8.20;99.90;;;;;;5029091;28;20611;-76
2022/11/28 07:36:25;;;;;;;9.27;6.97;;;8.30;99.90;;;;;;5029665;28;20173;-76
2022/11/28 07:38:53;;;;;;;8.48;7.50;;;8.20;99.90;;;;;;5030192;28;20162;-75
2022/11/28 07:41:20;;;;;;;7.80;7.00;;;8.30;99.90;;;;;;5029835;28;20252;-75
2022/11/28 07:43:47;;;;;;;9.27;7.43;;;8.30;99.90;;;;;;5028691;28;20283;-75
2022/11/28 07:46:15;;;;;;;9.23;7.75;;;8.30;99.90;;;;;;5028554;28;20174;-75
2022/11/28 07:48:41;;;;;;;8.80;7.95;;;8.30;99.90;;;;;;5029822;28;20183;-76
2022/11/28 07:51:18;;;;;;;8.30;7.43;;;8.30;99.90;;;;;;5029505;28;20193;-76
2022/11/28 07:53:45;;;;;;;8.75;7.85;;;8.40;99.90;;;;;;5027318;28;21023;-75
2022/11/28 07:56:14;;;;;;;8.82;7.68;;;8.40;99.90;;;;;;5027550;28;20170;-75
2022/11/28 07:58:41;;;;;;;10.07;8.32;;;8.30;99.90;;;;;;5039296;28;20201;-77
2022/11/28 08:01:15;;;;;;;9.98;7.85;;;8.30;99.90;;;;;;5036998;28;20277;-76
2022/11/28 08:03:41;;;;;;;12.93;8.77;;;8.30;99.90;;;;;;5029799;28;20208;-75
2022/11/28 08:06:07;;;;;;;8.05;6.68;;;8.30;99.90;;;;;;5030645;28;20169;-76
2022/11/28 08:08:34;;;;;;;10.90;9.23;;;8.30;99.90;;;;;;5030888;28;20169;-76
2022/11/28 08:11:01;;;;;;;9.30;7.63;;;8.30;99.90;;;;;;5030225;28;20213;-76
2022/11/28 08:13:28;;;;;;;9.38;8.38;;;8.30;99.90;;;;;;5029636;28;20598;-76
2022/11/28 08:15:54;;;;;;;9.80;7.57;;;8.30;99.90;;;;;;5032423;28;20212;-76
2022/11/28 08:18:19;;;;;;;12.17;8.63;;;8.30;99.90;;;;;;5030675;28;20174;-76
2022/11/28 08:20:45;;;;;;;8.73;7.07;;;8.30;99.90;;;;;;5030465;28;20679;-76
2022/11/28 08:23:11;;;;;;;7.43;6.70;;;8.40;99.90;;;;;;5029946;28;20173;-76
2022/11/28 08:25:37;;;;;;;8.03;7.33;;;8.40;99.90;;;;;;5033159;28;20209;-76
2022/11/28 08:28:03;;;;;;;9.13;7.30;;;8.40;99.90;;;;;;5030259;28;20560;-75
2022/11/28 08:30:29;;;;;;;10.53;7.60;;;8.40;99.90;;;;;;5030502;28;20201;-75
2022/11/28 08:32:55;;;;;;;8.65;7.75;;;8.40;99.90;;;;;;5029918;28;20580;-75
2022/11/28 08:35:21;;;;;;;10.05;7.85;;;8.40;99.90;;;;;;5030710;28;20192;-75
2022/11/28 08:37:47;;;;;;;8.57;7.70;;;8.40;99.90;;;;;;5030808;28;20932;-76
2022/11/28 08:40:14;;;;;;;7.68;6.63;;;8.40;99.90;;;;;;5031504;28;20180;-75
2022/11/28 08:42:40;;;;;;;7.40;6.43;;;8.50;99.90;;;;;;5031113;28;20201;-75
2022/11/28 08:45:06;;;;;;;8.40;7.30;;;8.50;99.90;;;;;;5041066;28;20184;-75
2022/11/28 08:47:32;;;;;;;8.75;7.22;;;8.50;99.90;;;;;;5055585;28;20687;-75
2022/11/28 08:49:58;;;;;;;7.03;6.28;;;8.60;99.90;;;;;;5054493;28;20177;-76
2022/11/28 08:52:24;;;;;;;10.00;7.70;;;8.60;99.90;;;;;;5058069;28;20179;-76
2022/11/28 08:54:50;;;;;;;9.50;7.78;;;8.60;99.90;;;;;;5043851;28;20193;-76
2022/11/28 08:57:16;;;;;;;8.17;7.37;;;8.60;99.90;;;;;;5037185;28;20192;-77
2022/11/28 08:59:42;;;;;;;7.60;6.80;;;8.60;99.90;;;;;;5040452;28;20233;-76
2022/11/28 09:02:10;;;;;;;6.80;6.07;;;8.70;99.90;;;;;;5040973;28;20260;-75
2022/11/28 09:04:36;;;;;;;9.77;6.82;;;8.70;99.90;;;;;;5036880;28;20986;-75
2022/11/28 09:07:02;;;;;;;7.13;6.43;;;8.70;99.90;;;;;;5035582;28;20174;-74
2022/11/28 09:09:28;;;;;;;6.93;6.10;;;8.80;99.90;;;;;;5033524;28;20169;-75
2022/11/28 09:11:54;;;;;;;6.60;5.80;;;8.80;99.90;;;;;;5032554;28;20626;-74
2022/11/28 09:14:20;;;;;;;7.70;6.73;;;8.80;99.90;;;;;;5033923;28;20193;-75
2022/11/28 09:16:45;;;;;;;7.10;6.40;;;8.80;99.90;;;;;;5034950;28;20161;-75
2022/11/28 09:19:11;;;;;;;9.20;6.53;;;8.90;99.90;;;;;;5033653;28;20276;-75
2022/11/28 09:21:37;;;;;;;8.17;6.87;;;8.90;99.90;;;;;;5016556;28;20223;-75
2022/11/28 09:24:03;;;;;;;7.63;6.83;;;8.90;99.90;;;;;;5033306;28;20194;-75
2022/11/28 09:26:32;;;;;;;7.65;6.90;;;8.90;99.90;;;;;;5033182;28;20642;-75
2022/11/28 09:28:58;;;;;;;11.10;7.43;;;9.00;99.90;;;;;;5032897;28;20178;-75
2022/11/28 09:31:24;;;;;;;7.43;6.60;;;9.00;99.90;;;;;;5044272;28;20197;-76
2022/11/28 09:33:50;;;;;;;8.98;7.72;;;9.00;99.90;;;;;;5043435;28;20608;-75
2022/11/28 09:36:34;;;;;;;8.23;6.53;;;9.00;99.90;;;;;;5046653;28;20177;-78
2022/11/28 09:39:00;;;;;;;7.40;6.13;;;9.10;99.90;;;;;;5041851;28;20588;-77
2022/11/28 09:41:38;;;;;;;6.68;5.95;;;9.10;99.90;;;;;;5043566;28;20174;-75
2022/11/28 09:44:21;;;;;;;6.93;6.22;;;9.10;99.90;;;;;;5043203;28;20699;-76
2022/11/28 09:46:50;;;;;;;6.20;5.60;;;9.20;99.90;;;;;;5047238;28;20173;-75
2022/11/28 09:49:25;;;;;;;8.60;6.25;;;9.20;99.90;;;;;;5042144;28;20166;-75
2022/11/28 09:52:05;;;;;;;7.30;6.60;;;9.20;99.90;;;;;;5044277;28;20596;-75
2022/11/28 09:54:49;;;;;;;7.75;6.95;;;9.30;99.90;;;;;;5032519;28;20266;-76
2022/11/28 09:57:23;;;;;;;6.80;5.80;;;9.30;99.90;;;;;;5006482;28;20188;-76
2022/11/28 09:59:49;;;;;;;7.15;5.90;;;9.30;99.90;;;;;;5041863;28;20205;-76
2022/11/28 10:02:19;;;;;;;7.80;6.73;;;9.40;99.90;;;;;;5044077;28;20198;-76
2022/11/28 10:05:07;;;;;;;11.25;7.20;;;9.40;99.90;;;;;;5040630;28;20209;-76
2022/11/28 10:07:42;;;;;;;7.07;6.35;;;9.50;99.90;;;;;;5047552;28;20169;-76
2022/11/28 10:10:19;;;;;;;6.25;5.65;;;9.50;99.90;;;;;;5035529;28;20181;-76
2022/11/28 10:13:25;;;;;;;7.60;6.00;;;9.50;99.90;;;;;;5032564;28;20251;-77
2022/11/28 10:16:00;;;;;;;6.63;5.90;;;9.60;99.90;;;;;;5033453;28;20170;-76
2022/11/28 10:18:44;;;;;;;7.90;6.80;;;9.60;99.90;;;;;;5035762;28;20223;-77
2022/11/28 10:21:20;;;;;;;7.60;6.90;;;9.70;99.90;;;;;;5048323;28;20583;-77
2022/11/28 10:23:49;;;;;;;10.15;6.50;;;9.70;99.90;;;;;;5035215;28;20192;-77
2022/11/28 10:26:21;;;;;;;7.60;6.53;;;9.80;99.90;;;;;;5034173;28;20193;-77
2022/11/28 10:28:50;;;;;;;7.55;6.85;;;9.70;99.90;;;;;;5031913;28;20173;-79
2022/11/28 10:31:23;;;;;;;7.45;6.05;;;9.80;99.90;;;;;;5031636;28;20189;-81
2022/11/28 10:34:11;;;;;;;10.63;8.32;;;9.80;99.90;;;;;;5027179;28;20186;-79
2022/11/28 10:36:46;;;;;;;9.60;7.80;;;9.80;99.90;;;;;;5032621;28;20208;-79
2022/11/28 10:39:13;;;;;;;10.43;7.53;;;9.80;99.90;;;;;;5029677;28;20267;-79
2022/11/28 10:42:10;;;;;;;9.80;7.95;;;9.80;99.90;;;;;;5030789;28;20272;-79
2022/11/28 10:44:52;;;;;;;7.30;6.45;;;9.80;99.90;;;;;;5031441;28;20235;-79
2022/11/28 10:47:38;;;;;;;7.55;6.85;;;9.80;99.90;;;;;;5031233;28;20177;-79
2022/11/28 10:50:30;;;;;;;8.90;6.53;;;9.80;99.90;;;;;;5032076;28;20190;-79
2022/11/28 10:53:15;;;;;;;7.90;6.75;;;9.80;99.90;;;;;;5029899;28;20189;-80
2022/11/28 10:56:09;;;;;;;8.40;6.45;;;9.90;99.90;;;;;;5032609;28;20211;-79
2022/11/28 10:58:46;;;;;;;6.80;5.70;;;9.90;99.90;;;;;;5020429;28;20675;-76
2022/11/28 11:01:12;;;;;;;7.75;6.80;;;9.90;99.90;;;;;;5013924;28;20177;-76
2022/11/28 11:03:39;;;;;;;8.70;7.03;;;9.90;99.90;;;;;;5031161;28;20292;-76
2022/11/28 11:06:05;;;;;;;8.75;7.03;;;10.00;99.90;;;;;;5030293;28;20821;-76
2022/11/28 11:08:36;;;;;;;8.40;7.60;;;10.00;99.90;;;;;;5031780;28;20169;-76
2022/11/28 11:11:29;;;;;;;9.13;6.93;;;10.00;99.90;;;;;;5030596;28;20978;-76
2022/11/28 11:13:59;;;;;;;8.10;7.30;;;10.00;99.90;;;;;;5029717;28;20197;-75
2022/11/28 11:16:45;;;;;;;10.52;7.22;;;10.00;99.90;;;;;;5030886;28;20560;-76
2022/11/28 11:19:25;;;;;;;8.82;7.45;;;10.00;99.90;;;;;;5030387;28;20525;-76
2022/11/28 11:22:05;;;;;;;8.48;6.60;;;9.90;99.90;;;;;;5029739;28;20165;-76
2022/11/28 11:24:32;;;;;;;8.93;6.75;;;10.00;99.90;;;;;;5031554;28;20185;-76
2022/11/28 11:27:20;;;;;;;10.18;8.57;;;10.00;99.90;;;;;;5031204;28;20173;-76
2022/11/28 11:29:46;;;;;;;8.18;7.38;;;10.00;99.90;;;;;;5031807;28;20177;-76
2022/11/28 11:32:38;;;;;;;9.02;7.85;;;10.00;99.90;;;;;;5031893;28;20200;-76
2022/11/28 11:35:05;;;;;;;10.48;8.60;;;10.00;99.90;;;;;;5027730;28;20237;-76
2022/11/28 11:37:37;;;;;;;10.25;8.80;;;10.00;99.90;;;;;;5043315;28;20580;-76
2022/11/28 11:40:20;;;;;;;9.15;7.10;;;9.90;99.90;;;;;;5030523;28;20177;-77
2022/11/28 11:42:58;;;;;;;9.52;7.90;;;9.90;99.90;;;;;;5030236;28;20209;-76
2022/11/28 11:45:31;;;;;;;9.05;7.60;;;9.90;99.90;;;;;;5029213;28;20197;-76
2022/11/28 11:47:57;;;;;;;10.88;9.05;;;9.80;99.90;;;;;;5029835;28;20170;-76
2022/11/28 11:50:25;;;;;;;10.90;8.63;;;9.80;99.90;;;;;;5030689;28;20197;-75
2022/11/28 11:53:06;;;;;;;10.35;8.77;;;9.80;99.90;;;;;;5030030;28;20169;-75
2022/11/28 11:55:43;;;;;;;17.02;11.52;;;9.80;99.90;;;;;;5030531;28;20231;-76
2022/11/28 11:58:13;;;;;;;14.15;10.80;;;9.70;99.90;;;;;;5029796;28;20173;-76
2022/11/28 12:00:40;;;;;;;12.05;9.25;;;9.70;99.90;;;;;;5029323;28;20261;-76
2022/11/28 12:03:38;;;;;;;9.38;8.48;;;9.80;99.90;;;;;;5029856;28;20177;-76
2022/11/28 12:06:16;;;;;;;8.80;7.40;;;9.70;99.90;;;;;;5020424;28;20187;-76
2022/11/28 12:08:52;;;;;;;11.73;7.88;;;9.70;99.90;;;;;;5050401;28;20704;-75
2022/11/28 12:11:27;;;;;;;8.00;7.20;;;9.70;99.90;;;;;;5033511;28;20199;-76
2022/11/28 12:13:53;;;;;;;7.60;6.90;;;9.70;99.90;;;;;;5048605;28;20677;-76
2022/11/28 12:16:33;;;;;;;8.80;7.82;;;9.70;99.90;;;;;;5031773;28;20177;-76
2022/11/28 12:19:26;;;;;;;9.93;8.27;;;9.70;99.90;;;;;;5018684;28;20593;-76
2022/11/28 12:22:17;;;;;;;10.38;8.02;;;9.70;99.90;;;;;;5025312;28;20529;-75
2022/11/28 12:24:46;;;;;;;7.57;6.88;;;9.80;99.90;;;;;;5032867;28;20263;-76
2022/11/28 12:27:23;;;;;;;11.00;8.88;;;9.80;99.90;;;;;;5034622;28;20173;-75
2022/11/28 12:30:08;;;;;;;13.38;6.63;;;9.80;99.90;;;;;;5032979;28;20184;-75
2022/11/28 12:32:51;;;;;;;8.35;5.93;;;9.90;99.90;;;;;;5015935;28;20661;-75
2022/11/28 12:35:32;;;;;;;8.95;6.65;;;9.90;99.90;;;;;;5034113;28;20189;-76
2022/11/28 12:38:08;;;;;;;18.23;15.18;;;9.90;99.90;;;;;;5033142;28;20204;-75
2022/11/28 12:40:40;;;;;;;24.40;14.55;;;9.90;99.90;;;;;;5028164;28;20542;-75
2022/11/28 12:43:45;;;;;;;16.73;12.48;;;10.00;99.90;;;;;;5027710;28;20747;-75
2022/11/28 12:46:32;;;;;;;11.93;10.07;;;10.00;99.90;;;;;;5025816;28;20177;-75
2022/11/28 12:49:13;;;;;;;9.95;8.95;;;10.00;99.90;;;;;;5034366;28;20660;-75
2022/11/28 12:52:02;;;;;;;9.07;8.15;;;10.00;99.90;;;;;;5029881;28;20679;-75
2022/11/28 12:54:30;;;;;;;10.60;7.05;;;10.00;99.90;;;;;;5031450;28;20563;-75
2022/11/28 12:57:07;;;;;;;9.00;8.10;;;10.10;99.90;;;;;;5041831;28;20235;-75
2022/11/28 12:59:55;;;;;;;9.70;7.35;;;10.10;99.90;;;;;;5024765;28;20570;-74
2022/11/28 13:02:44;;;;;;;11.82;7.38;;;10.10;99.90;;;;;;5016551;28;20190;-75
2022/11/28 13:05:52;;;;;;;8.73;7.05;;;10.10;99.90;;;;;;4983986;28;20218;-75
2022/11/28 13:08:29;;;;;;;8.20;6.95;;;10.00;99.90;;;;;;5012543;28;20268;-75
2022/11/28 13:11:14;;;;;;;7.13;6.43;;;10.00;99.90;;;;;;5029411;28;20202;-75
2022/11/28 13:13:55;;;;;;;8.73;6.97;;;9.90;99.90;;;;;;5012893;28;20194;-74
2022/11/28 13:16:44;;;;;;;24.08;16.05;;;10.00;99.90;;;;;;5024232;28;20241;-76
2022/11/28 13:19:33;;;;;;;11.75;9.10;;;9.90;99.90;;;;;;5026508;28;20178;-77
2022/11/28 13:22:22;;;;;;;10.95;9.68;;;9.90;99.90;;;;;;5032973;28;20205;-77
2022/11/28 13:25:09;;;;;;;9.55;8.55;;;10.00;99.90;;;;;;5035984;28;20200;-76